sensor_id;sensor_type;location;lat;lon;timestamp;temperature;humidity
22680;DHT22;11507;44.858;10.374;2023-03-24T00:02:18;11.50;99.90
22680;DHT22;11507;44.858;10.374;2023-03-24T00:04:48;11.50;99.90
22680;DHT22;11507;44.858;10.374;2023-03-24T00:07:17;11.40;99.90
22680;DHT22;11507;44.858;10.374;2023-03-24T00:09:45;11.40;99.90
22680;DHT22;11507;44.858;10.374;2023-03-24T00:12:12;11.40;99.90
22680;DHT22;11507;44.858;10.374;2023-03-24T00:14:39;11.50;99.90
22680;DHT22;11507;44.858;10.374;2023-03-24T00:17:07;11.40;99.90
22680;DHT22;11507;44.858;10.374;2023-03-24T00:19:42;11.30;99.90
22680;DHT22;11507;44.858;10.374;2023-03-24T00:22:11;11.30;99.90
22680;DHT22;11507;44.858;10.374;2023-03-24T00:24:43;11.20;99.90
22680;DHT22;11507;44.858;10.374;2023-03-24T00:27:12;11.10;99.90
22680;DHT22;11507;44.858;10.374;2023-03-24T00:29:41;11.00;99.90
22680;DHT22;11507;44.858;10.374;2023-03-24T00:32:07;11.00;99.90
22680;DHT22;11507;44.858;10.374;2023-03-24T00:34:34;10.90;99.90
22680;DHT22;11507;44.858;10.374;2023-03-24T00:37:05;10.80;99.90
22680;DHT22;11507;44.858;10.374;2023-03-24T00:39:32;10.80;99.90
22680;DHT22;11507;44.858;10.374;2023-03-24T00:41:58;10.90;99.90
22680;DHT22;11507;44.858;10.374;2023-03-24T00:44:26;10.80;99.90
22680;DHT22;11507;44.858;10.374;2023-03-24T00:46:52;10.80;99.90
22680;DHT22;11507;44.858;10.374;2023-03-24T00:49:26;10.70;99.90
22680;DHT22;11507;44.858;10.374;2023-03-24T00:52:15;10.60;99.90
22680;DHT22;11507;44.858;10.374;2023-03-24T00:54:42;10.40;99.90
22680;DHT22;11507;44.858;10.374;2023-03-24T00:57:12;10.20;99.90
22680;DHT22;11507;44.858;10.374;2023-03-24T00:59:39;10.10;99.90
22680;DHT22;11507;44.858;10.374;2023-03-24T01:02:14;10.00;99.90
22680;DHT22;11507;44.858;10.374;2023-03-24T01:04:40;10.10;99.90
22680;DHT22;11507;44.858;10.374;2023-03-24T01:07:13;10.00;99.90
22680;DHT22;11507;44.858;10.374;2023-03-24T01:09:44;10.00;99.90
22680;DHT22;11507;44.858;10.374;2023-03-24T01:12:42;10.10;99.90
22680;DHT22;11507;44.858;10.374;2023-03-24T01:15:15;10.20;99.90
22680;DHT22;11507;44.858;10.374;2023-03-24T01:17:41;10.20;99.90
22680;DHT22;11507;44.858;10.374;2023-03-24T01:20:07;10.30;99.90
22680;DHT22;11507;44.858;10.374;2023-03-24T01:22:37;10.30;99.90
22680;DHT22;11507;44.858;10.374;2023-03-24T01:25:09;10.20;99.90
22680;DHT22;11507;44.858;10.374;2023-03-24T01:27:36;10.10;99.90
22680;DHT22;11507;44.858;10.374;2023-03-24T01:30:03;9.90;99.90
22680;DHT22;11507;44.858;10.374;2023-03-24T01:32:30;9.80;99.90
22680;DHT22;11507;44.858;10.374;2023-03-24T01:34:57;9.80;99.90
22680;DHT22;11507;44.858;10.374;2023-03-24T01:37:23;9.70;99.90
22680;DHT22;11507;44.858;10.374;2023-03-24T01:39:50;9.50;99.90
22680;DHT22;11507;44.858;10.374;2023-03-24T01:42:18;9.30;99.90
22680;DHT22;11507;44.858;10.374;2023-03-24T01:44:47;9.30;99.90
22680;DHT22;11507;44.858;10.374;2023-03-24T01:47:13;9.20;99.90
22680;DHT22;11507;44.858;10.374;2023-03-24T01:49:43;9.10;99.90
22680;DHT22;11507;44.858;10.374;2023-03-24T01:52:19;9.20;99.90
22680;DHT22;11507;44.858;10.374;2023-03-24T01:55:16;9.20;99.90
22680;DHT22;11507;44.858;10.374;2023-03-24T01:57:48;9.20;99.90
22680;DHT22;11507;44.858;10.374;2023-03-24T02:00:17;9.40;99.90
22680;DHT22;11507;44.858;10.374;2023-03-24T02:03:11;9.60;99.90
22680;DHT22;11507;44.858;10.374;2023-03-24T02:05:49;9.80;99.90
22680;DHT22;11507;44.858;10.374;2023-03-24T02:10:48;10.10;99.90
22680;DHT22;11507;44.858;10.374;2023-03-24T02:13:15;10.20;99.90
22680;DHT22;11507;44.858;10.374;2023-03-24T02:16:28;10.10;99.90
22680;DHT22;11507;44.858;10.374;2023-03-24T02:18:38;10.20;99.90
22680;DHT22;11507;44.858;10.374;2023-03-24T02:24:34;10.10;99.90
22680;DHT22;11507;44.858;10.374;2023-03-24T02:30:14;10.00;99.90
22680;DHT22;11507;44.858;10.374;2023-03-24T02:41:14;9.90;99.90
22680;DHT22;11507;44.858;10.374;2023-03-24T02:52:06;9.70;99.90
22680;DHT22;11507;44.858;10.374;2023-03-24T02:54:58;9.50;99.90
22680;DHT22;11507;44.858;10.374;2023-03-24T02:57:29;9.20;99.90
22680;DHT22;11507;44.858;10.374;2023-03-24T03:00:44;9.00;99.90
22680;DHT22;11507;44.858;10.374;2023-03-24T03:05:46;8.70;99.90
22680;DHT22;11507;44.858;10.374;2023-03-24T03:08:16;8.80;99.90
22680;DHT22;11507;44.858;10.374;2023-03-24T03:10:47;8.80;99.90
22680;DHT22;11507;44.858;10.374;2023-03-24T03:13:38;8.80;99.90
22680;DHT22;11507;44.858;10.374;2023-03-24T03:16:24;8.80;99.90
22680;DHT22;11507;44.858;10.374;2023-03-24T03:18:57;8.70;99.90
22680;DHT22;11507;44.858;10.374;2023-03-24T03:21:29;8.50;99.90
22680;DHT22;11507;44.858;10.374;2023-03-24T03:24:17;8.60;99.90
22680;DHT22;11507;44.858;10.374;2023-03-24T03:27:15;8.80;99.90
22680;DHT22;11507;44.858;10.374;2023-03-24T03:29:56;9.00;99.90
22680;DHT22;11507;44.858;10.374;2023-03-24T03:32:33;9.20;99.90
22680;DHT22;11507;44.858;10.374;2023-03-24T03:35:18;9.20;99.90
22680;DHT22;11507;44.858;10.374;2023-03-24T03:43:15;9.70;99.90
22680;DHT22;11507;44.858;10.374;2023-03-24T03:45:41;9.70;99.90
22680;DHT22;11507;44.858;10.374;2023-03-24T03:48:07;9.70;99.90
22680;DHT22;11507;44.858;10.374;2023-03-24T03:50:34;9.70;99.90
22680;DHT22;11507;44.858;10.374;2023-03-24T03:53:06;9.70;99.90
22680;DHT22;11507;44.858;10.374;2023-03-24T03:55:32;9.60;99.90
22680;DHT22;11507;44.858;10.374;2023-03-24T03:58:02;9.50;99.90
22680;DHT22;11507;44.858;10.374;2023-03-24T04:00:43;9.20;99.90
22680;DHT22;11507;44.858;10.374;2023-03-24T04:06:02;9.00;99.90
22680;DHT22;11507;44.858;10.374;2023-03-24T04:16:53;9.20;99.90
22680;DHT22;11507;44.858;10.374;2023-03-24T04:30:40;9.90;99.90
22680;DHT22;11507;44.858;10.374;2023-03-24T04:33:24;10.00;99.90
22680;DHT22;11507;44.858;10.374;2023-03-24T04:36:01;10.00;99.90
22680;DHT22;11507;44.858;10.374;2023-03-24T04:38:42;10.00;99.90
22680;DHT22;11507;44.858;10.374;2023-03-24T04:41:26;10.00;99.90
22680;DHT22;11507;44.858;10.374;2023-03-24T04:44:05;9.90;99.90
22680;DHT22;11507;44.858;10.374;2023-03-24T04:46:39;9.80;99.90
22680;DHT22;11507;44.858;10.374;2023-03-24T04:49:10;9.70;99.90
22680;DHT22;11507;44.858;10.374;2023-03-24T04:51:38;9.50;99.90
22680;DHT22;11507;44.858;10.374;2023-03-24T04:54:10;9.40;99.90
22680;DHT22;11507;44.858;10.374;2023-03-24T04:56:47;9.30;99.90
22680;DHT22;11507;44.858;10.374;2023-03-24T04:59:30;9.20;99.90
22680;DHT22;11507;44.858;10.374;2023-03-24T05:02:00;9.30;99.90
22680;DHT22;11507;44.858;10.374;2023-03-24T05:04:27;9.30;99.90
22680;DHT22;11507;44.858;10.374;2023-03-24T05:06:59;9.30;99.90
22680;DHT22;11507;44.858;10.374;2023-03-24T05:09:26;9.20;99.90
22680;DHT22;11507;44.858;10.374;2023-03-24T05:11:52;9.10;99.90
22680;DHT22;11507;44.858;10.374;2023-03-24T05:14:20;9.00;99.90
22680;DHT22;11507;44.858;10.374;2023-03-24T05:16:48;9.00;99.90
22680;DHT22;11507;44.858;10.374;2023-03-24T05:19:17;9.00;99.90
22680;DHT22;11507;44.858;10.374;2023-03-24T05:21:43;8.90;99.90
22680;DHT22;11507;44.858;10.374;2023-03-24T05:24:11;8.80;99.90
22680;DHT22;11507;44.858;10.374;2023-03-24T05:26:37;8.90;99.90
22680;DHT22;11507;44.858;10.374;2023-03-24T05:29:16;8.90;99.90
22680;DHT22;11507;44.858;10.374;2023-03-24T05:31:42;8.80;99.90
22680;DHT22;11507;44.858;10.374;2023-03-24T05:34:14;8.80;99.90
22680;DHT22;11507;44.858;10.374;2023-03-24T05:37:03;8.70;99.90
22680;DHT22;11507;44.858;10.374;2023-03-24T05:39:29;8.70;99.90
22680;DHT22;11507;44.858;10.374;2023-03-24T05:42:21;8.70;99.90
22680;DHT22;11507;44.858;10.374;2023-03-24T05:44:50;8.70;99.90
22680;DHT22;11507;44.858;10.374;2023-03-24T05:47:24;8.80;99.90
22680;DHT22;11507;44.858;10.374;2023-03-24T05:49:52;8.90;99.90
22680;DHT22;11507;44.858;10.374;2023-03-24T05:52:18;8.90;99.90
22680;DHT22;11507;44.858;10.374;2023-03-24T05:54:47;9.00;99.90
22680;DHT22;11507;44.858;10.374;2023-03-24T05:57:20;9.10;99.90
22680;DHT22;11507;44.858;10.374;2023-03-24T06:00:12;9.20;99.90
22680;DHT22;11507;44.858;10.374;2023-03-24T06:03:00;9.30;99.90
22680;DHT22;11507;44.858;10.374;2023-03-24T06:05:37;9.30;99.90
22680;DHT22;11507;44.858;10.374;2023-03-24T06:08:03;9.40;99.90
22680;DHT22;11507;44.858;10.374;2023-03-24T06:10:32;9.40;99.90
22680;DHT22;11507;44.858;10.374;2023-03-24T06:13:02;9.50;99.90
22680;DHT22;11507;44.858;10.374;2023-03-24T06:15:34;9.60;99.90
22680;DHT22;11507;44.858;10.374;2023-03-24T06:18:15;9.70;99.90
22680;DHT22;11507;44.858;10.374;2023-03-24T06:20:42;9.90;99.90
22680;DHT22;11507;44.858;10.374;2023-03-24T06:23:16;10.10;99.90
22680;DHT22;11507;44.858;10.374;2023-03-24T06:25:55;10.30;99.90
22680;DHT22;11507;44.858;10.374;2023-03-24T06:28:24;10.60;99.90
22680;DHT22;11507;44.858;10.374;2023-03-24T06:30:58;10.90;99.90
22680;DHT22;11507;44.858;10.374;2023-03-24T06:33:32;11.20;99.90
22680;DHT22;11507;44.858;10.374;2023-03-24T06:35:59;11.50;99.90
22680;DHT22;11507;44.858;10.374;2023-03-24T06:38:27;11.80;99.90
22680;DHT22;11507;44.858;10.374;2023-03-24T06:40:58;12.10;99.90
22680;DHT22;11507;44.858;10.374;2023-03-24T06:43:25;12.40;99.90
22680;DHT22;11507;44.858;10.374;2023-03-24T06:45:52;12.70;99.90
22680;DHT22;11507;44.858;10.374;2023-03-24T06:48:23;13.10;99.90
22680;DHT22;11507;44.858;10.374;2023-03-24T06:50:57;13.50;99.90
22680;DHT22;11507;44.858;10.374;2023-03-24T06:53:24;13.90;99.90
22680;DHT22;11507;44.858;10.374;2023-03-24T06:55:50;14.40;99.90
22680;DHT22;11507;44.858;10.374;2023-03-24T06:58:18;14.70;99.90
22680;DHT22;11507;44.858;10.374;2023-03-24T07:01:03;15.00;99.90
22680;DHT22;11507;44.858;10.374;2023-03-24T07:03:38;15.30;99.90
22680;DHT22;11507;44.858;10.374;2023-03-24T07:06:15;15.60;99.90
22680;DHT22;11507;44.858;10.374;2023-03-24T07:08:47;15.80;99.90
22680;DHT22;11507;44.858;10.374;2023-03-24T07:11:14;16.10;99.90
22680;DHT22;11507;44.858;10.374;2023-03-24T07:13:48;16.10;99.90
22680;DHT22;11507;44.858;10.374;2023-03-24T07:16:15;16.10;99.90
22680;DHT22;11507;44.858;10.374;2023-03-24T07:18:41;16.10;99.90
22680;DHT22;11507;44.858;10.374;2023-03-24T07:21:07;16.30;99.90
22680;DHT22;11507;44.858;10.374;2023-03-24T07:23:35;16.30;99.90
22680;DHT22;11507;44.858;10.374;2023-03-24T07:26:30;16.40;99.90
22680;DHT22;11507;44.858;10.374;2023-03-24T07:29:01;16.40;99.90
22680;DHT22;11507;44.858;10.374;2023-03-24T07:31:55;16.40;99.90
22680;DHT22;11507;44.858;10.374;2023-03-24T07:34:27;16.40;99.90
22680;DHT22;11507;44.858;10.374;2023-03-24T07:36:54;16.40;99.90
22680;DHT22;11507;44.858;10.374;2023-03-24T07:39:21;16.40;99.90
22680;DHT22;11507;44.858;10.374;2023-03-24T07:41:47;16.40;99.90
22680;DHT22;11507;44.858;10.374;2023-03-24T07:44:26;16.20;99.90
22680;DHT22;11507;44.858;10.374;2023-03-24T07:46:53;16.20;99.90
22680;DHT22;11507;44.858;10.374;2023-03-24T07:49:20;16.20;99.90
22680;DHT22;11507;44.858;10.374;2023-03-24T07:52:06;16.10;99.90
22680;DHT22;11507;44.858;10.374;2023-03-24T07:54:38;16.00;99.90
22680;DHT22;11507;44.858;10.374;2023-03-24T07:57:04;16.00;99.90
22680;DHT22;11507;44.858;10.374;2023-03-24T07:59:30;16.00;99.90
22680;DHT22;11507;44.858;10.374;2023-03-24T08:02:19;16.10;99.90
22680;DHT22;11507;44.858;10.374;2023-03-24T08:05:22;16.30;99.90
22680;DHT22;11507;44.858;10.374;2023-03-24T08:07:58;16.50;99.90
22680;DHT22;11507;44.858;10.374;2023-03-24T08:10:27;16.60;99.90
22680;DHT22;11507;44.858;10.374;2023-03-24T08:12:54;16.60;99.90
22680;DHT22;11507;44.858;10.374;2023-03-24T08:15:21;16.60;99.90
22680;DHT22;11507;44.858;10.374;2023-03-24T08:17:49;16.50;99.90
22680;DHT22;11507;44.858;10.374;2023-03-24T08:20:16;16.40;99.90
22680;DHT22;11507;44.858;10.374;2023-03-24T08:22:45;16.40;99.90
22680;DHT22;11507;44.858;10.374;2023-03-24T08:25:17;16.50;99.90
22680;DHT22;11507;44.858;10.374;2023-03-24T08:27:43;16.60;99.90
22680;DHT22;11507;44.858;10.374;2023-03-24T08:30:14;16.80;99.90
22680;DHT22;11507;44.858;10.374;2023-03-24T08:32:47;16.80;99.90
22680;DHT22;11507;44.858;10.374;2023-03-24T08:35:14;16.70;99.90
22680;DHT22;11507;44.858;10.374;2023-03-24T08:37:41;16.70;99.90
22680;DHT22;11507;44.858;10.374;2023-03-24T08:40:13;16.80;99.90
22680;DHT22;11507;44.858;10.374;2023-03-24T08:42:43;16.90;99.90
22680;DHT22;11507;44.858;10.374;2023-03-24T08:45:11;17.00;99.90
22680;DHT22;11507;44.858;10.374;2023-03-24T08:47:38;17.20;99.90
22680;DHT22;11507;44.858;10.374;2023-03-24T08:50:05;17.20;99.90
22680;DHT22;11507;44.858;10.374;2023-03-24T08:52:33;17.40;99.90
22680;DHT22;11507;44.858;10.374;2023-03-24T08:54:58;17.50;99.90
22680;DHT22;11507;44.858;10.374;2023-03-24T08:57:25;17.60;99.90
22680;DHT22;11507;44.858;10.374;2023-03-24T08:59:51;17.60;99.90
22680;DHT22;11507;44.858;10.374;2023-03-24T09:02:17;17.60;99.90
22680;DHT22;11507;44.858;10.374;2023-03-24T09:04:43;17.70;99.90
22680;DHT22;11507;44.858;10.374;2023-03-24T09:07:10;17.80;99.90
22680;DHT22;11507;44.858;10.374;2023-03-24T09:09:36;17.80;99.90
22680;DHT22;11507;44.858;10.374;2023-03-24T09:12:06;17.90;99.90
22680;DHT22;11507;44.858;10.374;2023-03-24T09:14:32;17.90;99.90
22680;DHT22;11507;44.858;10.374;2023-03-24T09:16:58;17.90;99.90
22680;DHT22;11507;44.858;10.374;2023-03-24T09:19:25;17.90;99.90
22680;DHT22;11507;44.858;10.374;2023-03-24T09:21:53;17.90;99.90
22680;DHT22;11507;44.858;10.374;2023-03-24T09:24:19;18.00;99.90
22680;DHT22;11507;44.858;10.374;2023-03-24T09:26:49;18.20;99.90
22680;DHT22;11507;44.858;10.374;2023-03-24T09:29:15;18.30;99.90
22680;DHT22;11507;44.858;10.374;2023-03-24T09:31:41;18.50;99.90
22680;DHT22;11507;44.858;10.374;2023-03-24T09:34:12;19.00;99.90
22680;DHT22;11507;44.858;10.374;2023-03-24T09:36:40;19.80;99.90
22680;DHT22;11507;44.858;10.374;2023-03-24T09:39:13;20.00;99.90
22680;DHT22;11507;44.858;10.374;2023-03-24T09:41:41;20.00;99.90
22680;DHT22;11507;44.858;10.374;2023-03-24T09:44:26;20.00;99.80
22680;DHT22;11507;44.858;10.374;2023-03-24T09:47:04;20.00;99.90
22680;DHT22;11507;44.858;10.374;2023-03-24T09:49:35;20.20;99.00
22680;DHT22;11507;44.858;10.374;2023-03-24T09:52:13;20.40;97.50
22680;DHT22;11507;44.858;10.374;2023-03-24T09:54:47;20.60;99.60
22680;DHT22;11507;44.858;10.374;2023-03-24T09:57:40;20.90;97.70
22680;DHT22;11507;44.858;10.374;2023-03-24T10:00:26;21.60;95.60
22680;DHT22;11507;44.858;10.374;2023-03-24T10:03:19;21.90;94.10
22680;DHT22;11507;44.858;10.374;2023-03-24T10:05:51;22.10;91.60
22680;DHT22;11507;44.858;10.374;2023-03-24T10:08:36;22.20;91.20
22680;DHT22;11507;44.858;10.374;2023-03-24T10:18:57;22.50;87.70
22680;DHT22;11507;44.858;10.374;2023-03-24T10:21:26;22.90;84.10
22680;DHT22;11507;44.858;10.374;2023-03-24T10:24:05;23.00;82.10
22680;DHT22;11507;44.858;10.374;2023-03-24T10:26:45;23.20;88.00
22680;DHT22;11507;44.858;10.374;2023-03-24T10:29:29;23.30;88.20
22680;DHT22;11507;44.858;10.374;2023-03-24T10:32:13;24.10;85.60
22680;DHT22;11507;44.858;10.374;2023-03-24T10:34:43;24.40;80.50
22680;DHT22;11507;44.858;10.374;2023-03-24T10:37:15;24.40;77.20
22680;DHT22;11507;44.858;10.374;2023-03-24T10:39:43;24.30;82.00
22680;DHT22;11507;44.858;10.374;2023-03-24T10:42:17;24.90;78.70
22680;DHT22;11507;44.858;10.374;2023-03-24T10:44:46;24.60;73.10
22680;DHT22;11507;44.858;10.374;2023-03-24T10:47:18;24.90;75.50
22680;DHT22;11507;44.858;10.374;2023-03-24T10:49:58;24.90;73.30
22680;DHT22;11507;44.858;10.374;2023-03-24T10:52:26;25.10;73.80
22680;DHT22;11507;44.858;10.374;2023-03-24T10:55:05;25.60;72.60
22680;DHT22;11507;44.858;10.374;2023-03-24T10:57:31;26.70;72.20
22680;DHT22;11507;44.858;10.374;2023-03-24T11:00:14;26.50;66.40
22680;DHT22;11507;44.858;10.374;2023-03-24T11:02:43;26.20;66.70
22680;DHT22;11507;44.858;10.374;2023-03-24T11:05:16;26.20;66.70
22680;DHT22;11507;44.858;10.374;2023-03-24T11:07:52;25.80;69.00
22680;DHT22;11507;44.858;10.374;2023-03-24T11:10:25;26.00;71.60
22680;DHT22;11507;44.858;10.374;2023-03-24T11:15:24;27.30;65.30
22680;DHT22;11507;44.858;10.374;2023-03-24T11:20:51;27.10;65.40
22680;DHT22;11507;44.858;10.374;2023-03-24T11:23:23;27.10;64.20
22680;DHT22;11507;44.858;10.374;2023-03-24T11:28:49;26.60;63.80
22680;DHT22;11507;44.858;10.374;2023-03-24T11:31:26;25.80;65.20
22680;DHT22;11507;44.858;10.374;2023-03-24T11:34:07;25.80;66.30
22680;DHT22;11507;44.858;10.374;2023-03-24T11:36:43;26.40;66.50
22680;DHT22;11507;44.858;10.374;2023-03-24T11:39:33;26.40;66.60
22680;DHT22;11507;44.858;10.374;2023-03-24T11:44:49;26.90;65.10
22680;DHT22;11507;44.858;10.374;2023-03-24T11:47:23;27.10;62.10
22680;DHT22;11507;44.858;10.374;2023-03-24T11:55:21;26.80;59.80
22680;DHT22;11507;44.858;10.374;2023-03-24T12:06:32;26.90;61.80
22680;DHT22;11507;44.858;10.374;2023-03-24T12:09:23;26.80;59.80
22680;DHT22;11507;44.858;10.374;2023-03-24T12:17:23;27.40;57.20
22680;DHT22;11507;44.858;10.374;2023-03-24T12:25:47;27.00;56.90
22680;DHT22;11507;44.858;10.374;2023-03-24T12:37:32;27.10;57.30
22680;DHT22;11507;44.858;10.374;2023-03-24T12:45:51;28.30;59.60
22680;DHT22;11507;44.858;10.374;2023-03-24T12:59:34;28.30;53.80
22680;DHT22;11507;44.858;10.374;2023-03-24T13:02:24;28.30;56.10
22680;DHT22;11507;44.858;10.374;2023-03-24T13:04:54;28.60;52.40
22680;DHT22;11507;44.858;10.374;2023-03-24T13:07:25;27.80;54.60
22680;DHT22;11507;44.858;10.374;2023-03-24T13:10:06;26.80;55.00
22680;DHT22;11507;44.858;10.374;2023-03-24T13:15:35;24.90;64.60
22680;DHT22;11507;44.858;10.374;2023-03-24T13:31:27;27.40;66.10
22680;DHT22;11507;44.858;10.374;2023-03-24T13:33:58;28.40;55.50
22680;DHT22;11507;44.858;10.374;2023-03-24T13:36:44;28.30;54.40
22680;DHT22;11507;44.858;10.374;2023-03-24T13:39:13;28.10;52.80
22680;DHT22;11507;44.858;10.374;2023-03-24T13:41:40;28.40;55.70
22680;DHT22;11507;44.858;10.374;2023-03-24T13:44:24;28.10;53.30
22680;DHT22;11507;44.858;10.374;2023-03-24T13:47:18;27.90;53.80
22680;DHT22;11507;44.858;10.374;2023-03-24T13:50:01;28.40;51.60
22680;DHT22;11507;44.858;10.374;2023-03-24T13:52:34;28.40;51.80
22680;DHT22;11507;44.858;10.374;2023-03-24T13:55:08;28.50;54.80
22680;DHT22;11507;44.858;10.374;2023-03-24T13:57:40;28.40;50.80
22680;DHT22;11507;44.858;10.374;2023-03-24T14:02:52;28.10;51.30
22680;DHT22;11507;44.858;10.374;2023-03-24T14:15:31;26.10;52.50
22680;DHT22;11507;44.858;10.374;2023-03-24T14:23:41;24.90;55.20
22680;DHT22;11507;44.858;10.374;2023-03-24T14:26:13;25.50;56.70
22680;DHT22;11507;44.858;10.374;2023-03-24T14:28:50;25.60;54.10
22680;DHT22;11507;44.858;10.374;2023-03-24T14:31:23;25.00;55.40
22680;DHT22;11507;44.858;10.374;2023-03-24T14:41:48;22.70;59.80
22680;DHT22;11507;44.858;10.374;2023-03-24T14:44:50;22.20;58.00
22680;DHT22;11507;44.858;10.374;2023-03-24T14:47:29;21.90;59.10
22680;DHT22;11507;44.858;10.374;2023-03-24T14:49:57;21.50;61.40
22680;DHT22;11507;44.858;10.374;2023-03-24T14:52:39;21.30;61.30
22680;DHT22;11507;44.858;10.374;2023-03-24T14:55:11;21.30;61.10
22680;DHT22;11507;44.858;10.374;2023-03-24T14:57:42;21.60;62.10
22680;DHT22;11507;44.858;10.374;2023-03-24T15:00:38;23.00;60.70
22680;DHT22;11507;44.858;10.374;2023-03-24T15:05:52;24.00;57.80
22680;DHT22;11507;44.858;10.374;2023-03-24T15:08:26;24.70;57.30
22680;DHT22;11507;44.858;10.374;2023-03-24T15:11:02;25.20;54.60
22680;DHT22;11507;44.858;10.374;2023-03-24T15:13:49;25.10;55.10
22680;DHT22;11507;44.858;10.374;2023-03-24T15:16:20;24.90;55.10
22680;DHT22;11507;44.858;10.374;2023-03-24T15:21:26;25.30;56.00
22680;DHT22;11507;44.858;10.374;2023-03-24T15:24:02;25.00;54.60
22680;DHT22;11507;44.858;10.374;2023-03-24T15:26:30;25.20;55.50
22680;DHT22;11507;44.858;10.374;2023-03-24T15:28:59;25.50;54.50
22680;DHT22;11507;44.858;10.374;2023-03-24T15:31:26;25.00;54.20
22680;DHT22;11507;44.858;10.374;2023-03-24T15:34:25;24.90;56.50
22680;DHT22;11507;44.858;10.374;2023-03-24T15:37:03;24.90;57.70
22680;DHT22;11507;44.858;10.374;2023-03-24T15:39:35;24.90;55.00
22680;DHT22;11507;44.858;10.374;2023-03-24T15:42:16;24.90;56.20
22680;DHT22;11507;44.858;10.374;2023-03-24T15:44:42;24.50;56.20
22680;DHT22;11507;44.858;10.374;2023-03-24T15:47:23;24.40;56.80
22680;DHT22;11507;44.858;10.374;2023-03-24T15:49:58;24.60;57.30
22680;DHT22;11507;44.858;10.374;2023-03-24T15:52:28;24.50;56.90
22680;DHT22;11507;44.858;10.374;2023-03-24T15:55:05;24.40;56.50
22680;DHT22;11507;44.858;10.374;2023-03-24T15:57:39;24.40;56.90
22680;DHT22;11507;44.858;10.374;2023-03-24T16:00:12;24.00;58.80
22680;DHT22;11507;44.858;10.374;2023-03-24T16:02:53;23.90;59.10
22680;DHT22;11507;44.858;10.374;2023-03-24T16:05:30;23.60;58.80
22680;DHT22;11507;44.858;10.374;2023-03-24T16:08:00;23.10;59.00
22680;DHT22;11507;44.858;10.374;2023-03-24T16:10:38;22.50;60.60
22680;DHT22;11507;44.858;10.374;2023-03-24T16:13:21;21.90;61.20
22680;DHT22;11507;44.858;10.374;2023-03-24T16:18:43;21.00;64.30
22680;DHT22;11507;44.858;10.374;2023-03-24T16:23:38;20.70;65.30
22680;DHT22;11507;44.858;10.374;2023-03-24T16:26:04;20.40;66.10
22680;DHT22;11507;44.858;10.374;2023-03-24T16:28:31;20.30;66.20
22680;DHT22;11507;44.858;10.374;2023-03-24T16:31:02;20.00;66.50
22680;DHT22;11507;44.858;10.374;2023-03-24T16:33:32;20.00;67.30
22680;DHT22;11507;44.858;10.374;2023-03-24T16:35:59;19.90;67.50
22680;DHT22;11507;44.858;10.374;2023-03-24T16:38:26;19.80;69.50
22680;DHT22;11507;44.858;10.374;2023-03-24T16:40:55;19.60;70.20
22680;DHT22;11507;44.858;10.374;2023-03-24T16:43:22;19.50;69.20
22680;DHT22;11507;44.858;10.374;2023-03-24T16:45:49;19.50;69.70
22680;DHT22;11507;44.858;10.374;2023-03-24T16:48:17;19.40;68.60
22680;DHT22;11507;44.858;10.374;2023-03-24T16:50:49;19.30;69.30
22680;DHT22;11507;44.858;10.374;2023-03-24T16:53:17;19.20;69.00
22680;DHT22;11507;44.858;10.374;2023-03-24T16:55:43;19.20;69.70
22680;DHT22;11507;44.858;10.374;2023-03-24T16:58:14;19.10;69.10
22680;DHT22;11507;44.858;10.374;2023-03-24T17:00:43;19.00;70.40
22680;DHT22;11507;44.858;10.374;2023-03-24T17:03:13;18.90;69.50
22680;DHT22;11507;44.858;10.374;2023-03-24T17:05:43;18.80;69.80
22680;DHT22;11507;44.858;10.374;2023-03-24T17:08:11;18.70;69.80
22680;DHT22;11507;44.858;10.374;2023-03-24T17:10:38;18.60;71.00
22680;DHT22;11507;44.858;10.374;2023-03-24T17:13:05;18.50;70.90
22680;DHT22;11507;44.858;10.374;2023-03-24T17:15:31;18.40;72.50
22680;DHT22;11507;44.858;10.374;2023-03-24T17:17:58;18.20;73.10
22680;DHT22;11507;44.858;10.374;2023-03-24T17:20:25;18.10;73.20
22680;DHT22;11507;44.858;10.374;2023-03-24T17:22:54;18.00;73.70
22680;DHT22;11507;44.858;10.374;2023-03-24T17:25:21;17.80;74.70
22680;DHT22;11507;44.858;10.374;2023-03-24T17:27:48;17.70;75.10
22680;DHT22;11507;44.858;10.374;2023-03-24T17:30:18;17.60;75.60
22680;DHT22;11507;44.858;10.374;2023-03-24T17:32:44;17.50;75.90
22680;DHT22;11507;44.858;10.374;2023-03-24T17:35:17;17.40;76.50
22680;DHT22;11507;44.858;10.374;2023-03-24T17:37:44;17.30;76.50
22680;DHT22;11507;44.858;10.374;2023-03-24T17:40:11;17.30;76.70
22680;DHT22;11507;44.858;10.374;2023-03-24T17:42:39;17.20;77.20
22680;DHT22;11507;44.858;10.374;2023-03-24T17:45:13;17.10;77.70
22680;DHT22;11507;44.858;10.374;2023-03-24T17:47:41;17.00;78.60
22680;DHT22;11507;44.858;10.374;2023-03-24T17:50:10;16.80;79.00
22680;DHT22;11507;44.858;10.374;2023-03-24T17:52:46;16.80;79.10
22680;DHT22;11507;44.858;10.374;2023-03-24T17:55:13;16.60;80.20
22680;DHT22;11507;44.858;10.374;2023-03-24T17:57:45;16.60;80.60
22680;DHT22;11507;44.858;10.374;2023-03-24T18:00:16;16.40;80.80
22680;DHT22;11507;44.858;10.374;2023-03-24T18:02:48;16.30;81.10
22680;DHT22;11507;44.858;10.374;2023-03-24T18:05:29;16.20;81.70
22680;DHT22;11507;44.858;10.374;2023-03-24T18:07:55;16.10;82.40
22680;DHT22;11507;44.858;10.374;2023-03-24T18:10:23;16.00;83.10
22680;DHT22;11507;44.858;10.374;2023-03-24T18:12:49;16.00;82.40
22680;DHT22;11507;44.858;10.374;2023-03-24T18:15:18;16.00;83.00
22680;DHT22;11507;44.858;10.374;2023-03-24T18:17:52;16.00;82.60
22680;DHT22;11507;44.858;10.374;2023-03-24T18:20:21;15.90;83.50
22680;DHT22;11507;44.858;10.374;2023-03-24T18:23:01;15.80;83.50
22680;DHT22;11507;44.858;10.374;2023-03-24T18:25:28;15.60;85.10
22680;DHT22;11507;44.858;10.374;2023-03-24T18:27:54;15.60;85.00
22680;DHT22;11507;44.858;10.374;2023-03-24T18:30:21;15.50;86.00
22680;DHT22;11507;44.858;10.374;2023-03-24T18:32:52;15.50;86.30
22680;DHT22;11507;44.858;10.374;2023-03-24T18:35:22;15.40;86.20
22680;DHT22;11507;44.858;10.374;2023-03-24T18:37:48;15.40;86.60
22680;DHT22;11507;44.858;10.374;2023-03-24T18:40:25;15.30;88.00
22680;DHT22;11507;44.858;10.374;2023-03-24T18:46:17;15.20;88.90
22680;DHT22;11507;44.858;10.374;2023-03-24T18:49:01;15.10;88.50
22680;DHT22;11507;44.858;10.374;2023-03-24T18:51:35;15.10;88.20
22680;DHT22;11507;44.858;10.374;2023-03-24T18:54:21;15.00;88.00
22680;DHT22;11507;44.858;10.374;2023-03-24T18:56:55;15.00;88.90
22680;DHT22;11507;44.858;10.374;2023-03-24T18:59:21;15.00;89.30